Time;durP1;ratioP1;P1;durP2;ratioP2;P2;SDS_P1;SDS_P2;PMS_P1;PMS_P2;Temp;Humidity;BMP_temperature;BMP_pressure;BME280_temperature;BME280_humidity;BME280_pressure;Samples;Min_cycle;Max_cycle;Signal;HPM_P1;HPM_P2
2024/01/29 00:02:10;;;;;;;11.70;5.32;;;;;;;7.45;61.09;102444.06;5102984;28;20052;-59
2024/01/29 00:04:37;;;;;;;8.20;4.47;;;;;;;7.43;61.28;102431.84;5093970;28;20082;-59
2024/01/29 00:07:05;;;;;;;7.20;4.45;;;;;;;7.42;60.78;102427.50;5102465;28;20063;-60
2024/01/29 00:09:34;;;;;;;7.75;4.28;;;;;;;7.41;61.25;102434.69;5103461;28;20055;-59
2024/01/29 00:12:02;;;;;;;8.32;4.63;;;;;;;7.40;61.76;102438.38;5095929;28;20048;-58
2024/01/29 00:14:30;;;;;;;7.97;4.13;;;;;;;7.41;60.96;102441.88;5092020;28;20438;-59
2024/01/29 00:17:00;;;;;;;8.15;4.10;;;;;;;7.41;61.25;102441.88;5086516;28;20086;-58
2024/01/29 00:19:28;;;;;;;9.32;4.38;;;;;;;7.42;60.99;102439.03;5101391;28;20047;-59
2024/01/29 00:21:56;;;;;;;8.13;4.43;;;;;;;7.39;61.11;102443.88;5104098;28;20117;-58
2024/01/29 00:24:24;;;;;;;8.75;4.07;;;;;;;7.38;61.36;102440.38;5097162;28;20045;-59
2024/01/29 00:26:54;;;;;;;6.10;3.63;;;;;;;7.37;60.65;102443.19;5104093;28;20465;-57
2024/01/29 00:29:21;;;;;;;8.32;4.93;;;;;;;7.37;60.75;102436.03;5106266;28;20149;-59
2024/01/29 00:31:49;;;;;;;8.20;4.57;;;;;;;7.35;61.18;102427.31;5101530;28;20052;-59
2024/01/29 00:34:17;;;;;;;6.90;4.32;;;;;;;7.34;60.97;102428.31;5097543;28;20079;-58
2024/01/29 00:36:45;;;;;;;7.90;4.18;;;;;;;7.34;61.13;102430.16;5099549;28;20053;-58
2024/01/29 00:39:13;;;;;;;6.95;4.70;;;;;;;7.33;61.59;102433.81;5096289;28;20054;-59
2024/01/29 00:41:41;;;;;;;11.93;4.63;;;;;;;7.33;60.73;102432.00;5094836;28;20048;-59
2024/01/29 00:44:10;;;;;;;8.98;4.65;;;;;;;7.31;60.94;102425.97;5096778;28;20044;-60
2024/01/29 00:46:39;;;;;;;6.85;4.05;;;;;;;7.31;60.66;102422.47;5096499;28;20044;-59
2024/01/29 00:49:07;;;;;;;9.27;4.20;;;;;;;7.31;60.76;102430.47;5102725;28;20699;-59
2024/01/29 00:51:36;;;;;;;8.48;4.80;;;;;;;7.28;61.29;102422.78;5099949;28;20050;-59
2024/01/29 00:54:04;;;;;;;6.53;3.70;;;;;;;7.27;61.16;102426.44;5090864;28;20458;-59
2024/01/29 00:56:32;;;;;;;7.57;4.63;;;;;;;7.26;61.05;102420.25;5097545;28;20040;-59
2024/01/29 00:59:00;;;;;;;9.93;4.10;;;;;;;7.26;61.09;102416.75;5092696;28;20044;-59
2024/01/29 01:01:29;;;;;;;9.15;4.70;;;;;;;7.26;61.48;102427.44;5097106;28;20044;-59
2024/01/29 01:03:57;;;;;;;8.15;4.13;;;;;;;7.24;61.38;102427.59;5096381;28;20044;-59
2024/01/29 01:06:26;;;;;;;7.82;4.35;;;;;;;7.24;61.11;102429.44;5099952;28;20048;-59
2024/01/29 01:08:53;;;;;;;8.88;4.30;;;;;;;7.23;60.61;102431.28;5096366;28;20064;-58
2024/01/29 01:11:21;;;;;;;6.50;4.18;;;;;;;7.20;61.23;102428.94;5092464;28;20126;-59
2024/01/29 01:13:51;;;;;;;6.15;3.58;;;;;;;7.23;60.82;102439.31;5101554;28;20078;-59
2024/01/29 01:16:19;;;;;;;6.47;4.40;;;;;;;7.22;61.21;102434.94;5096126;28;20052;-60
2024/01/29 01:18:48;;;;;;;8.70;3.95;;;;;;;7.24;60.34;102445.50;5102374;28;20109;-60
2024/01/29 01:21:17;;;;;;;7.43;4.50;;;;;;;7.24;60.93;102442.81;5093642;28;20036;-60
2024/01/29 01:23:45;;;;;;;8.93;4.35;;;;;;;7.25;60.24;102455.19;5093584;28;20430;-60
2024/01/29 01:26:12;;;;;;;7.30;4.60;;;;;;;7.24;61.26;102454.34;5087552;28;20048;-60
2024/01/29 01:28:40;;;;;;;5.90;3.75;;;;;;;7.24;61.03;102445.50;5087258;28;20040;-60
2024/01/29 01:31:08;;;;;;;9.38;4.10;;;;;;;7.21;60.12;102443.97;5104292;28;20055;-59
2024/01/29 01:33:36;;;;;;;8.57;5.25;;;;;;;7.21;60.53;102452.00;5091042;28;20145;-58
2024/01/29 01:36:05;;;;;;;9.43;4.43;;;;;;;7.21;60.39;102451.16;5094477;28;20064;-57
2024/01/29 01:38:33;;;;;;;10.60;5.90;;;;;;;7.20;60.07;102450.31;5101750;28;20048;-58
2024/01/29 01:41:01;;;;;;;10.00;5.03;;;;;;;7.19;60.50;102448.66;5099122;28;20400;-59
2024/01/29 01:43:29;;;;;;;10.48;5.15;;;;;;;7.19;60.20;102454.84;5087818;28;20102;-59
2024/01/29 01:46:17;;;;;;;9.00;5.38;;;;;;;7.18;59.88;102450.47;5093008;28;20041;-59
2024/01/29 01:48:45;;;;;;;9.75;5.65;;;;;;;7.19;60.61;102451.31;5101149;28;20439;-58
2024/01/29 01:51:14;;;;;;;12.63;5.78;;;;;;;7.17;60.19;102464.00;5093411;28;20048;-59
2024/01/29 01:53:43;;;;;;;11.68;5.63;;;;;;;7.17;59.94;102462.19;5100918;28;20052;-59
2024/01/29 01:56:11;;;;;;;10.57;5.90;;;;;;;7.16;60.61;102465.00;5089852;28;20501;-59
2024/01/29 01:58:41;;;;;;;11.75;5.90;;;;;;;7.14;59.90;102456.31;5096254;28;20044;-60
2024/01/29 02:01:09;;;;;;;11.95;5.40;;;;;;;7.13;60.56;102460.81;5102461;28;20565;-58
2024/01/29 02:03:39;;;;;;;10.48;5.15;;;;;;;7.11;60.66;102470.00;5088993;28;20573;-58
2024/01/29 02:06:08;;;;;;;11.55;5.72;;;;;;;7.09;61.02;102458.63;5095452;28;20049;-60
2024/01/29 02:08:37;;;;;;;10.90;5.47;;;;;;;7.09;60.58;102464.81;5093814;28;20040;-60
2024/01/29 02:11:05;;;;;;;12.13;5.07;;;;;;;7.08;60.13;102463.13;5095325;28;20053;-57
2024/01/29 02:13:34;;;;;;;12.43;5.55;;;;;;;7.06;60.18;102459.78;5086252;28;20044;-59
2024/01/29 02:16:03;;;;;;;9.10;5.68;;;;;;;7.06;60.47;102465.13;5092544;28;20335;-59
2024/01/29 02:18:31;;;;;;;10.55;5.72;;;;;;;7.05;60.00;102457.25;5090249;28;20059;-58
2024/01/29 02:20:59;;;;;;;9.68;5.28;;;;;;;7.03;60.83;102468.13;5096318;28;20105;-60
2024/01/29 02:23:28;;;;;;;10.93;5.63;;;;;;;7.04;60.04;102460.94;5096170;28;20097;-58
2024/01/29 02:25:56;;;;;;;9.02;4.57;;;;;;;7.02;59.87;102458.41;5097670;28;20105;-60
2024/01/29 02:28:25;;;;;;;10.15;5.07;;;;;;;7.01;60.03;102458.56;5100387;28;20051;-58
2024/01/29 02:30:53;;;;;;;7.80;5.10;;;;;;;6.99;59.86;102455.22;5096165;28;20206;-58
2024/01/29 02:33:21;;;;;;;8.77;4.97;;;;;;;6.99;59.98;102455.22;5095134;28;20405;-58
2024/01/29 02:35:50;;;;;;;10.27;5.32;;;;;;;6.98;60.23;102458.91;5095147;28;20072;-59
2024/01/29 02:38:18;;;;;;;12.23;5.18;;;;;;;6.97;60.14;102458.06;5101640;28;20040;-58
2024/01/29 02:40:47;;;;;;;10.10;5.05;;;;;;;6.96;60.31;102455.53;5093854;28;20066;-58
2024/01/29 02:43:15;;;;;;;9.80;5.00;;;;;;;6.95;59.99;102460.06;5101235;28;20435;-57
2024/01/29 02:45:43;;;;;;;8.43;4.75;;;;;;;6.94;60.07;102457.53;5091322;28;20083;-58
2024/01/29 02:48:11;;;;;;;9.27;5.40;;;;;;;6.93;59.86;102467.41;5095131;28;20109;-58
2024/01/29 02:50:39;;;;;;;8.65;4.97;;;;;;;6.93;60.24;102467.41;5099859;28;20048;-59
2024/01/29 02:53:06;;;;;;;7.97;4.85;;;;;;;6.93;60.11;102470.09;5102241;28;20091;-59
2024/01/29 02:55:34;;;;;;;7.15;5.03;;;;;;;6.92;60.16;102459.56;5100661;28;20081;-60
2024/01/29 02:58:04;;;;;;;8.00;5.28;;;;;;;6.90;60.60;102465.06;5101873;28;20481;-59
2024/01/29 03:00:32;;;;;;;7.82;5.00;;;;;;;6.89;60.63;102451.88;5099925;28;20040;-59
2024/01/29 03:03:00;;;;;;;8.48;4.53;;;;;;;6.88;59.91;102458.19;5100492;28;20058;-58
2024/01/29 03:05:28;;;;;;;8.85;4.60;;;;;;;6.88;60.21;102458.19;5098876;28;20075;-58
2024/01/29 03:07:56;;;;;;;9.80;5.20;;;;;;;6.84;59.82;102455.84;5097720;28;20101;-59
2024/01/29 03:10:24;;;;;;;7.43;4.55;;;;;;;6.82;60.22;102455.16;5101753;28;20565;-59
2024/01/29 03:12:52;;;;;;;11.27;4.60;;;;;;;6.83;60.26;102456.00;5097094;28;20052;-58
2024/01/29 03:15:21;;;;;;;14.60;5.43;;;;;;;6.83;60.24;102461.34;5102472;28;20049;-59
2024/01/29 03:17:49;;;;;;;8.65;4.38;;;;;;;6.82;60.25;102455.16;5090574;28;20048;-60
2024/01/29 03:20:17;;;;;;;10.95;4.47;;;;;;;6.80;59.91;102456.31;5091056;28;20040;-58
2024/01/29 03:22:45;;;;;;;7.63;5.32;;;;;;;6.80;60.37;102462.50;5094430;28;20055;-58
2024/01/29 03:25:13;;;;;;;7.55;4.75;;;;;;;6.79;60.37;102457.31;5097637;28;20048;-59
2024/01/29 03:27:40;;;;;;;6.90;4.50;;;;;;;6.77;60.07;102453.97;5100559;28;20048;-59
2024/01/29 03:30:09;;;;;;;9.52;5.05;;;;;;;6.77;60.31;102453.97;5095230;28;20050;-59
2024/01/29 03:32:38;;;;;;;9.05;4.25;;;;;;;6.76;60.67;102446.94;5100125;28;20056;-59
2024/01/29 03:35:06;;;;;;;7.18;4.90;;;;;;;6.74;60.17;102449.78;5098415;28;20052;-59
2024/01/29 03:37:33;;;;;;;10.23;5.25;;;;;;;6.75;59.70;102458.63;5099505;28;20051;-59
2024/01/29 03:40:02;;;;;;;7.22;4.20;;;;;;;6.74;60.07;102459.63;5100745;28;20036;-58
2024/01/29 03:42:29;;;;;;;7.72;4.63;;;;;;;6.74;60.46;102464.97;5096295;28;20044;-58
2024/01/29 03:44:57;;;;;;;8.52;4.85;;;;;;;6.74;60.26;102454.28;5103360;28;20063;-58
2024/01/29 03:47:25;;;;;;;8.70;5.15;;;;;;;6.73;59.60;102460.63;5101169;28;20044;-58
2024/01/29 03:49:54;;;;;;;7.47;4.63;;;;;;;6.70;59.73;102452.91;5099256;28;20109;-58
2024/01/29 03:52:22;;;;;;;5.40;3.85;;;;;;;6.72;59.94;102462.44;5104245;28;20050;-58
2024/01/29 03:54:50;;;;;;;8.48;4.82;;;;;;;6.72;60.41;102472.28;5106031;28;20044;-58
2024/01/29 03:57:18;;;;;;;8.23;4.10;;;;;;;6.72;60.16;102469.63;5088144;28;20048;-58
2024/01/29 03:59:45;;;;;;;7.65;4.32;;;;;;;6.69;59.50;102475.28;5102635;28;20055;-60
2024/01/29 04:02:13;;;;;;;7.20;4.68;;;;;;;6.68;59.77;102470.94;5100617;28;20059;-59
2024/01/29 04:04:43;;;;;;;12.20;4.38;;;;;;;6.67;59.75;102474.59;5103807;28;20047;-60
2024/01/29 04:07:13;;;;;;;7.55;4.47;;;;;;;6.67;59.75;102474.59;5096233;28;20067;-59
2024/01/29 04:09:41;;;;;;;10.32;5.10;;;;;;;6.66;59.71;102468.41;5092664;28;20101;-59
2024/01/29 04:12:10;;;;;;;7.95;4.88;;;;;;;6.67;59.56;102471.94;5102935;28;20044;-59
2024/01/29 04:14:37;;;;;;;11.00;5.70;;;;;;;6.66;60.44;102467.56;5105069;28;20056;-60
2024/01/29 04:17:06;;;;;;;7.45;4.38;;;;;;;6.65;59.99;102479.25;5096195;28;20044;-58
2024/01/29 04:19:34;;;;;;;10.18;4.60;;;;;;;6.64;59.86;102474.91;5093369;28;20045;-59
2024/01/29 04:22:02;;;;;;;7.45;4.43;;;;;;;6.62;59.94;102471.56;5105163;28;20354;-58
2024/01/29 04:24:32;;;;;;;7.38;4.80;;;;;;;6.62;59.84;102472.41;5092508;28;20464;-59
2024/01/29 04:26:59;;;;;;;7.00;4.35;;;;;;;6.62;60.36;102474.22;5094472;28;20067;-59
2024/01/29 04:29:27;;;;;;;7.32;4.40;;;;;;;6.60;59.62;102474.38;5097561;28;20121;-58
2024/01/29 04:31:55;;;;;;;7.43;4.95;;;;;;;6.59;60.50;102472.69;5087102;28;20062;-59
2024/01/29 04:34:23;;;;;;;6.85;4.18;;;;;;;6.59;60.75;102474.53;5087298;28;20048;-59
2024/01/29 04:36:51;;;;;;;6.00;3.70;;;;;;;6.58;60.46;102478.19;5100798;28;20056;-59
2024/01/29 04:39:19;;;;;;;7.80;4.38;;;;;;;6.57;60.59;102473.84;5096734;28;20050;-59
2024/01/29 04:41:48;;;;;;;7.43;4.32;;;;;;;6.56;60.07;102472.19;5101165;28;20052;-59
2024/01/29 04:44:16;;;;;;;8.95;4.53;;;;;;;6.54;60.37;102475.00;5092142;28;20060;-60
2024/01/29 04:46:43;;;;;;;7.40;4.30;;;;;;;6.53;60.38;102476.00;5105196;28;20105;-59
2024/01/29 04:49:11;;;;;;;8.40;4.38;;;;;;;6.52;60.55;102485.84;5096632;28;20101;-60
2024/01/29 04:51:41;;;;;;;9.10;4.20;;;;;;;6.51;60.33;102478.81;5101424;28;20040;-59
2024/01/29 04:54:09;;;;;;;7.90;4.63;;;;;;;6.47;59.97;102477.47;5100868;28;20048;-59
2024/01/29 04:56:37;;;;;;;8.38;5.30;;;;;;;6.50;60.37;102477.16;5104006;28;20098;-59
2024/01/29 04:59:06;;;;;;;7.20;4.30;;;;;;;6.50;60.20;102484.31;5101873;28;20067;-59
2024/01/29 05:01:34;;;;;;;7.32;4.28;;;;;;;6.48;60.15;102483.63;5100719;28;20047;-59
2024/01/29 05:04:02;;;;;;;8.30;4.35;;;;;;;6.47;60.48;102481.97;5102536;28;20048;-60
2024/01/29 05:06:30;;;;;;;7.60;4.70;;;;;;;6.48;60.01;102483.63;5099752;28;20050;-58
2024/01/29 05:08:58;;;;;;;7.22;4.00;;;;;;;6.47;60.45;102495.31;5097384;28;20058;-59
2024/01/29 05:11:26;;;;;;;10.82;4.90;;;;;;;6.45;60.51;102483.94;5098387;28;20047;-59
2024/01/29 05:13:54;;;;;;;7.95;4.53;;;;;;;6.43;60.61;102491.28;5103081;28;20289;-60
2024/01/29 05:16:23;;;;;;;6.05;3.95;;;;;;;6.43;60.51;102484.09;5100858;28;20070;-59
2024/01/29 05:18:51;;;;;;;7.93;4.63;;;;;;;6.41;60.62;102491.44;5100396;28;20441;-59
2024/01/29 05:21:19;;;;;;;10.38;4.55;;;;;;;6.41;60.70;102483.41;5102606;28;20040;-60
2024/01/29 05:23:46;;;;;;;7.53;3.83;;;;;;;6.40;60.43;102484.41;5095983;28;20492;-59
2024/01/29 05:26:14;;;;;;;7.70;4.25;;;;;;;6.39;60.38;102488.06;5100839;28;20040;-59
2024/01/29 05:28:42;;;;;;;8.45;4.50;;;;;;;6.38;60.95;102491.75;5098898;28;20048;-59
2024/01/29 05:31:10;;;;;;;7.20;4.68;;;;;;;6.38;60.63;102488.22;5104955;28;20113;-58
2024/01/29 05:33:39;;;;;;;7.40;4.40;;;;;;;6.37;60.37;102495.41;5098349;28;20492;-59
2024/01/29 05:36:08;;;;;;;9.02;4.28;;;;;;;6.37;60.22;102495.41;5095283;28;20076;-58
2024/01/29 05:38:36;;;;;;;8.18;4.57;;;;;;;6.36;60.68;102492.88;5090245;28;20048;-59
2024/01/29 05:41:04;;;;;;;8.32;4.25;;;;;;;6.35;60.37;102491.19;5085566;28;20036;-59
2024/01/29 05:43:31;;;;;;;7.75;4.55;;;;;;;6.33;60.49;102491.34;5101366;28;20145;-59
2024/01/29 05:45:59;;;;;;;7.07;4.10;;;;;;;6.34;60.68;102501.03;5095121;28;20052;-58
2024/01/29 05:48:27;;;;;;;7.90;4.55;;;;;;;6.32;60.82;102500.34;5093833;28;20359;-59
2024/01/29 05:50:56;;;;;;;7.95;4.32;;;;;;;6.33;60.63;102501.19;5092625;28;20983;-59
2024/01/29 05:53:24;;;;;;;6.95;3.80;;;;;;;6.31;60.44;102496.00;5096245;28;20051;-59
2024/01/29 05:55:52;;;;;;;10.45;5.00;;;;;;;6.31;60.88;102497.84;5098137;28;20048;-59
2024/01/29 05:58:21;;;;;;;7.97;4.70;;;;;;;6.31;61.04;102504.03;5091149;28;20378;-60
2024/01/29 06:00:48;;;;;;;6.80;4.03;;;;;;;6.29;61.02;102498.00;5096730;28;20052;-58
2024/01/29 06:03:17;;;;;;;7.93;4.35;;;;;;;6.28;60.89;102507.00;5094682;28;20050;-59
2024/01/29 06:05:45;;;;;;;8.95;4.35;;;;;;;6.29;60.35;102508.69;5095985;28;20072;-60
2024/01/29 06:08:14;;;;;;;6.03;4.22;;;;;;;6.29;60.97;102506.00;5097395;28;20048;-59
2024/01/29 06:10:42;;;;;;;7.85;4.53;;;;;;;6.40;60.73;102508.44;5095760;28;20092;-60
2024/01/29 06:13:10;;;;;;;5.82;3.88;;;;;;;6.57;60.41;102500.56;5093899;28;20117;-59
2024/01/29 06:15:38;;;;;;;6.38;4.05;;;;;;;6.66;59.69;102504.97;5094967;28;20056;-59
2024/01/29 06:18:06;;;;;;;7.93;4.57;;;;;;;6.74;59.99;102510.38;5085885;28;20048;-59
2024/01/29 06:20:34;;;;;;;7.13;4.45;;;;;;;6.87;59.31;102516.16;5100782;28;20050;-59
2024/01/29 06:23:02;;;;;;;6.45;3.80;;;;;;;6.97;58.52;102513.34;5101690;28;20067;-59
2024/01/29 06:25:31;;;;;;;7.68;3.88;;;;;;;7.13;58.83;102511.63;5089485;28;20446;-60
2024/01/29 06:27:59;;;;;;;6.93;4.20;;;;;;;7.28;57.70;102514.53;5086696;28;20048;-58
2024/01/29 06:30:26;;;;;;;7.85;4.18;;;;;;;7.40;57.67;102501.72;5095067;28;20068;-59
2024/01/29 06:32:56;;;;;;;6.18;3.83;;;;;;;7.47;57.16;102495.56;5089966;28;20080;-58
2024/01/29 06:35:24;;;;;;;6.10;3.65;;;;;;;7.48;57.71;102494.56;5089648;28;20051;-59
2024/01/29 06:37:51;;;;;;;7.03;3.80;;;;;;;7.39;57.60;102505.41;5097894;28;20048;-59
2024/01/29 06:40:22;;;;;;;5.78;3.78;;;;;;;7.27;57.55;102507.50;5096724;28;20048;-59
2024/01/29 06:42:52;;;;;;;7.95;4.97;;;;;;;7.14;58.25;102510.63;5103223;28;20048;-59
2024/01/29 06:45:20;;;;;;;7.97;4.85;;;;;;;7.05;58.85;102521.41;5096847;28;20358;-58
2024/01/29 06:47:47;;;;;;;6.32;4.10;;;;;;;6.97;59.01;102519.53;5097269;28;20056;-59
2024/01/29 06:50:15;;;;;;;7.93;3.83;;;;;;;6.92;59.42;102518.34;5091937;28;20041;-59
2024/01/29 06:52:43;;;;;;;5.90;3.60;;;;;;;6.87;59.42;102515.31;5094240;28;20041;-58
2024/01/29 06:55:11;;;;;;;6.65;3.97;;;;;;;6.83;59.03;102522.81;5095049;28;20048;-59
2024/01/29 06:57:39;;;;;;;6.72;4.43;;;;;;;6.64;59.46;102515.81;4746406;28;10000225;-58
2024/01/29 07:00:09;;;;;;;6.68;4.00;;;;;;;6.46;59.86;102526.53;5084356;28;20068;-59
2024/01/29 07:02:38;;;;;;;7.50;3.90;;;;;;;6.45;60.46;102526.69;5086281;28;20056;-58
2024/01/29 07:05:06;;;;;;;8.35;4.40;;;;;;;6.45;60.24;102532.03;5086450;28;20123;-61
2024/01/29 07:07:34;;;;;;;5.63;4.00;;;;;;;6.45;60.50;102542.69;5087877;28;20049;-60
2024/01/29 07:10:02;;;;;;;9.10;4.63;;;;;;;6.45;60.51;102540.88;5088193;28;20045;-65
2024/01/29 07:12:30;;;;;;;7.13;4.13;;;;;;;6.43;60.25;102544.69;5096381;28;20408;-60
2024/01/29 07:14:58;;;;;;;6.90;4.22;;;;;;;6.34;60.82;102545.59;5095886;28;20048;-61
2024/01/29 07:17:27;;;;;;;8.13;4.65;;;;;;;6.34;60.86;102550.94;5090360;28;20040;-63
2024/01/29 07:19:55;;;;;;;7.80;3.80;;;;;;;6.32;60.71;102548.41;5093588;28;20044;-61
2024/01/29 07:22:24;;;;;;;6.68;3.95;;;;;;;6.32;61.25;102552.91;5093601;28;20040;-61
2024/01/29 07:24:52;;;;;;;7.78;4.00;;;;;;;6.30;61.32;102555.75;5106111;28;20070;-62
2024/01/29 07:27:20;;;;;;;8.65;4.38;;;;;;;6.30;60.73;102554.91;5102061;28;20052;-61
2024/01/29 07:29:47;;;;;;;8.23;4.18;;;;;;;6.24;61.34;102561.69;5094528;28;20173;-59
2024/01/29 07:32:15;;;;;;;6.53;4.22;;;;;;;6.23;61.43;102561.84;5100269;28;20054;-61
2024/01/29 07:34:44;;;;;;;6.00;3.67;;;;;;;6.19;61.67;102571.97;5102657;28;20044;-61
2024/01/29 07:37:14;;;;;;;6.68;4.00;;;;;;;6.20;61.54;102576.31;5105879;28;20044;-61
2024/01/29 07:39:42;;;;;;;7.15;3.92;;;;;;;6.18;61.42;102575.63;5105902;28;20052;-60
2024/01/29 07:42:10;;;;;;;10.10;4.25;;;;;;;6.19;61.47;102578.16;5101337;28;20148;-59
2024/01/29 07:44:38;;;;;;;7.15;4.10;;;;;;;6.18;61.75;102576.47;5092970;28;20066;-60
2024/01/29 07:47:06;;;;;;;6.75;3.65;;;;;;;6.17;61.63;102585.47;5103520;28;20447;-61
2024/01/29 07:49:34;;;;;;;8.93;4.47;;;;;;;6.18;61.67;102583.66;5103012;28;20051;-61
2024/01/29 07:52:03;;;;;;;8.00;4.50;;;;;;;6.17;61.43;102587.31;5103984;28;20044;-61
2024/01/29 07:54:31;;;;;;;7.35;4.07;;;;;;;6.17;61.92;102588.16;5098692;28;20043;-60
2024/01/29 07:56:59;;;;;;;7.75;3.78;;;;;;;6.24;61.44;102580.38;5104418;28;20044;-61
2024/01/29 07:59:27;;;;;;;7.90;4.65;;;;;;;6.29;61.87;102587.94;5098645;28;20047;-60
2024/01/29 08:01:54;;;;;;;5.57;3.40;;;;;;;6.32;61.64;102584.97;5093074;28;20055;-61
2024/01/29 08:04:23;;;;;;;6.72;4.03;;;;;;;6.34;61.29;102580.31;5090285;28;20044;-62
2024/01/29 08:06:51;;;;;;;7.07;3.75;;;;;;;6.37;61.74;102586.19;5094495;28;20087;-61
2024/01/29 08:09:20;;;;;;;6.20;3.95;;;;;;;6.36;61.65;102589.84;5094880;28;20059;-61
2024/01/29 08:11:47;;;;;;;6.60;3.47;;;;;;;6.37;61.86;102596.03;5099493;28;20059;-60
2024/01/29 08:14:15;;;;;;;7.63;3.78;;;;;;;6.38;61.76;102587.88;5100540;28;20051;-61
2024/01/29 08:16:43;;;;;;;6.72;3.80;;;;;;;6.39;61.60;102589.53;5106494;28;20413;-60
2024/01/29 08:19:11;;;;;;;9.38;3.53;;;;;;;6.41;61.61;102594.75;5091404;28;20048;-61
2024/01/29 08:21:41;;;;;;;8.52;4.05;;;;;;;6.40;61.90;102596.56;5101279;28;20052;-60
2024/01/29 08:24:09;;;;;;;5.45;3.45;;;;;;;6.40;61.75;102593.91;5097065;28;20097;-60
2024/01/29 08:26:38;;;;;;;5.95;3.55;;;;;;;6.38;61.79;102585.19;5104192;28;20058;-60
2024/01/29 08:29:06;;;;;;;7.65;3.72;;;;;;;6.37;61.62;102588.84;5098718;28;20078;-61
2024/01/29 08:31:34;;;;;;;8.07;3.70;;;;;;;6.38;61.71;102584.34;5096818;28;20044;-60
2024/01/29 08:34:04;;;;;;;5.95;3.78;;;;;;;6.37;61.59;102594.19;5098042;28;20064;-60
2024/01/29 08:36:33;;;;;;;6.82;3.53;;;;;;;6.38;61.83;102597.72;5100872;28;20055;-60
2024/01/29 08:39:01;;;;;;;8.27;3.88;;;;;;;6.37;61.97;102588.84;5092781;28;20049;-61
2024/01/29 08:41:29;;;;;;;7.38;3.28;;;;;;;6.40;62.18;102595.72;5101929;28;20043;-59
2024/01/29 08:43:58;;;;;;;9.77;3.42;;;;;;;6.41;61.68;102600.91;5093452;28;20073;-59
2024/01/29 08:46:26;;;;;;;7.68;3.45;;;;;;;6.40;62.30;102595.72;5104202;28;20070;-59
2024/01/29 08:48:57;;;;;;;5.28;3.30;;;;;;;6.50;61.98;102604.50;5100607;28;20075;-60
2024/01/29 08:51:25;;;;;;;6.38;3.55;;;;;;;6.68;61.38;102601.84;5095633;28;20080;-60
2024/01/29 08:53:53;;;;;;;6.95;3.58;;;;;;;6.86;60.89;102610.69;5093641;28;20076;-60
2024/01/29 08:56:21;;;;;;;6.22;3.38;;;;;;;7.04;60.84;102592.75;5102952;28;20040;-60
2024/01/29 08:58:48;;;;;;;5.40;3.25;;;;;;;7.24;60.65;102592.56;5100038;28;20052;-61
2024/01/29 09:01:17;;;;;;;4.68;2.85;;;;;;;7.44;59.41;102589.50;5101353;28;20052;-60
2024/01/29 09:03:45;;;;;;;6.55;2.97;;;;;;;7.67;59.36;102587.13;5092894;28;20508;-60
2024/01/29 09:06:14;;;;;;;6.45;3.28;;;;;;;7.84;58.35;102577.34;5102866;28;20123;-60
2024/01/29 09:08:43;;;;;;;6.00;3.08;;;;;;;8.02;58.22;102585.25;5098797;28;20048;-59
2024/01/29 09:11:11;;;;;;;8.13;3.42;;;;;;;8.24;57.90;102586.50;5094621;28;20106;-59
2024/01/29 09:13:38;;;;;;;5.18;3.10;;;;;;;8.37;57.57;102589.56;5092035;28;20573;-59
2024/01/29 09:16:07;;;;;;;7.20;3.40;;;;;;;8.50;56.83;102575.69;5102586;28;20047;-59
2024/01/29 09:18:36;;;;;;;9.88;3.95;;;;;;;8.61;56.50;102583.41;5094788;28;20052;-60
2024/01/29 09:21:04;;;;;;;6.78;3.85;;;;;;;8.67;56.95;102580.03;5100695;28;20052;-59
2024/01/29 09:23:32;;;;;;;8.15;4.03;;;;;;;8.70;56.83;102577.84;5103056;28;20505;-58
2024/01/29 09:26:00;;;;;;;7.00;3.50;;;;;;;8.77;56.87;102575.34;5099384;28;20048;-59
2024/01/29 09:28:28;;;;;;;5.85;3.35;;;;;;;8.68;56.63;102582.53;5098282;28;20052;-58
2024/01/29 09:30:55;;;;;;;5.95;3.28;;;;;;;8.54;57.44;102577.03;5103376;28;20043;-60
2024/01/29 09:33:23;;;;;;;4.88;3.05;;;;;;;8.38;58.09;102583.22;5092033;28;20052;-60
2024/01/29 09:35:53;;;;;;;7.47;3.60;;;;;;;8.18;58.90;102582.63;5091616;28;20048;-59
2024/01/29 09:38:21;;;;;;;5.65;3.55;;;;;;;8.03;59.75;102582.41;5092143;28;20079;-60
2024/01/29 09:40:49;;;;;;;5.30;3.45;;;;;;;7.91;59.33;102589.06;5104525;28;20451;-61
2024/01/29 09:43:21;;;;;;;5.15;3.15;;;;;;;7.80;59.31;102589.38;5094461;28;20085;-60
2024/01/29 09:45:50;;;;;;;6.63;3.90;;;;;;;7.73;60.27;102589.16;5098248;28;20047;-60
2024/01/29 09:48:19;;;;;;;6.43;3.30;;;;;;;7.83;59.96;102595.22;5101639;28;20044;-60
2024/01/29 09:50:49;;;;;;;6.05;3.65;;;;;;;7.96;59.81;102592.09;5096910;28;20050;-59
2024/01/29 09:53:21;;;;;;;6.53;3.88;;;;;;;8.13;59.70;102593.84;5090769;28;20032;-59
2024/01/29 09:55:50;;;;;;;5.97;3.28;;;;;;;8.32;59.16;102605.25;5099276;28;20394;-59
2024/01/29 09:58:18;;;;;;;6.28;3.40;;;;;;;8.46;58.62;102613.53;5096503;28;20043;-59
2024/01/29 10:00:47;;;;;;;4.95;2.90;;;;;;;8.68;58.28;102600.47;5091445;28;20414;-60
2024/01/29 10:03:21;;;;;;;6.30;3.80;;;;;;;8.79;57.88;102614.38;5097370;28;20048;-59
2024/01/29 10:05:51;;;;;;;5.30;3.78;;;;;;;8.94;56.99;102614.56;5094589;28;20052;-59
2024/01/29 10:08:20;;;;;;;6.35;3.70;;;;;;;9.03;57.01;102610.03;5088970;28;20044;-59
2024/01/29 10:10:49;;;;;;;6.95;3.60;;;;;;;9.08;56.60;102618.41;5093283;28;20044;-60
2024/01/29 10:13:17;;;;;;;4.75;3.05;;;;;;;9.12;57.36;102619.75;5098855;28;20051;-59
2024/01/29 10:15:45;;;;;;;7.65;3.70;;;;;;;9.16;57.14;102618.41;5087925;28;20135;-60
2024/01/29 10:18:15;;;;;;;5.82;3.65;;;;;;;9.18;56.71;102615.56;5085755;28;20044;-61
2024/01/29 10:20:43;;;;;;;5.93;3.75;;;;;;;9.21;56.78;102620.56;5091099;28;20071;-60
2024/01/29 10:23:11;;;;;;;5.65;3.10;;;;;;;9.23;56.99;102624.75;5090599;28;20045;-59
2024/01/29 10:25:40;;;;;;;5.80;3.20;;;;;;;9.25;56.83;102620.06;5093073;28;20182;-59
2024/01/29 10:28:12;;;;;;;4.93;3.38;;;;;;;9.23;57.04;102623.94;5094889;28;20047;-59
2024/01/29 10:30:40;;;;;;;6.60;3.35;;;;;;;9.16;57.62;102623.75;5093339;28;20044;-58
2024/01/29 10:33:08;;;;;;;5.25;3.13;;;;;;;9.03;58.00;102626.97;5102295;28;20093;-60
2024/01/29 10:35:37;;;;;;;8.30;3.63;;;;;;;8.86;58.04;102625.28;5101369;28;20952;-59
2024/01/29 10:38:07;;;;;;;4.38;2.85;;;;;;;8.70;59.00;102631.47;5100991;28;20060;-59
2024/01/29 10:40:36;;;;;;;4.80;3.05;;;;;;;8.57;59.85;102627.63;5092848;28;20135;-59
2024/01/29 10:43:06;;;;;;;6.90;3.95;;;;;;;8.45;60.23;102624.41;5100346;28;20075;-59
2024/01/29 10:45:39;;;;;;;6.68;3.53;;;;;;;8.35;60.69;102623.72;5094258;28;20052;-60
2024/01/29 10:48:13;;;;;;;9.60;3.35;;;;;;;8.31;60.64;102630.38;5091478;28;20051;-59
2024/01/29 10:50:42;;;;;;;8.88;4.25;;;;;;;8.25;61.34;102623.84;5099013;28;20048;-60
2024/01/29 10:53:13;;;;;;;5.72;3.58;;;;;;;8.22;61.13;102626.00;5094439;28;20040;-60
2024/01/29 10:55:41;;;;;;;5.15;3.47;;;;;;;8.15;62.01;102621.28;5098756;28;20071;-60
2024/01/29 10:58:13;;;;;;;6.93;3.63;;;;;;;8.14;61.63;102624.13;5094059;28;20098;-60
2024/01/29 11:00:42;;;;;;;9.00;3.88;;;;;;;8.11;62.59;102624.47;5100888;28;20135;-60
2024/01/29 11:03:12;;;;;;;6.63;3.83;;;;;;;8.10;61.88;102628.13;5092017;28;20049;-60
2024/01/29 11:05:43;;;;;;;5.40;3.38;;;;;;;8.09;61.87;102624.63;5100017;28;20059;-60
2024/01/29 11:08:16;;;;;;;6.78;3.70;;;;;;;8.08;62.33;102619.41;5100545;28;20040;-60
2024/01/29 11:10:44;;;;;;;8.52;4.82;;;;;;;8.08;62.08;102624.78;5093531;28;20052;-60
2024/01/29 11:13:15;;;;;;;5.53;3.53;;;;;;;8.10;62.35;102625.47;5096834;28;20048;-60
2024/01/29 11:15:43;;;;;;;7.75;4.07;;;;;;;8.09;62.36;102624.63;5096494;28;20155;-60
2024/01/29 11:18:11;;;;;;;7.32;3.75;;;;;;;8.10;62.57;102622.78;5100695;28;20058;-60
2024/01/29 11:20:41;;;;;;;5.95;3.60;;;;;;;8.09;62.78;102621.94;5098565;28;20051;-60
2024/01/29 11:23:10;;;;;;;10.68;4.57;;;;;;;8.11;63.18;102621.78;5091441;28;20057;-60
2024/01/29 11:25:51;;;;;;;5.43;3.22;;;;;;;8.10;62.33;102620.94;5100896;28;20070;-60
2024/01/29 11:28:26;;;;;;;8.10;4.20;;;;;;;8.09;63.49;102621.94;5098275;28;20040;-60
2024/01/29 11:30:54;;;;;;;5.47;3.55;;;;;;;8.10;63.34;102618.25;5098520;28;20067;-60
2024/01/29 11:33:23;;;;;;;7.45;3.80;;;;;;;8.12;63.22;102620.78;5098565;28;20056;-59
2024/01/29 11:35:55;;;;;;;7.72;3.97;;;;;;;8.13;63.25;102611.75;5095462;28;20036;-59
2024/01/29 11:38:24;;;;;;;6.00;3.80;;;;;;;8.14;63.27;102614.25;5092238;28;20070;-59